createdAt,value
2023-03-12T00:02:04.473Z,-1.04
2023-03-12T00:04:10.816Z,-1.09
2023-03-12T00:06:17.785Z,-1.13
2023-03-12T00:08:23.505Z,-1.14
2023-03-12T00:10:28.902Z,-1.16
2023-03-12T00:12:34.124Z,-1.16
2023-03-12T00:14:40.182Z,-1.13
2023-03-12T00:16:45.846Z,-1.06
2023-03-12T00:18:51.492Z,-1.03
2023-03-12T00:20:56.922Z,-1.04
2023-03-12T00:23:02.884Z,-1.02
2023-03-12T00:25:08.756Z,-1.05
2023-03-12T00:27:14.123Z,-1.05
2023-03-12T00:29:19.583Z,-0.99
2023-03-12T00:31:24.940Z,-0.97
2023-03-12T00:33:30.886Z,-1.03
2023-03-12T00:35:36.260Z,-1.04
2023-03-12T00:37:41.954Z,-1.05
2023-03-12T00:39:47.334Z,-1.05
2023-03-12T00:41:53.048Z,-1.12
2023-03-12T00:43:58.478Z,-1.19
2023-03-12T00:46:04.082Z,-1.22
2023-03-12T00:48:09.624Z,-1.21
2023-03-12T00:50:14.940Z,-1.21
2023-03-12T00:52:20.100Z,-1.24
2023-03-12T00:54:25.300Z,-1.23
2023-03-12T00:56:31.110Z,-1.28
2023-03-12T00:58:37.010Z,-1.35
2023-03-12T01:00:43.386Z,-1.42
2023-03-12T01:02:49.296Z,-1.41
2023-03-12T01:04:54.598Z,-1.42
2023-03-12T01:07:00.500Z,-1.43
2023-03-12T01:09:06.435Z,-1.43
2023-03-12T01:11:12.047Z,-1.33
2023-03-12T01:13:17.580Z,-1.33
2023-03-12T01:15:23.225Z,-1.32
2023-03-12T01:17:28.895Z,-1.38
2023-03-12T01:19:34.104Z,-1.39
2023-03-12T01:21:39.409Z,-1.43
2023-03-12T01:23:44.737Z,-1.4
2023-03-12T01:25:50.477Z,-1.38
2023-03-12T01:27:55.980Z,-1.34
2023-03-12T01:30:01.368Z,-1.36
2023-03-12T01:32:07.304Z,-1.33
2023-03-12T01:34:12.905Z,-1.29
2023-03-12T01:36:18.025Z,-1.19
2023-03-12T01:38:23.523Z,-1.1
2023-03-12T01:40:28.837Z,-1.03
2023-03-12T01:42:34.208Z,-0.95
2023-03-12T01:44:39.501Z,-0.9
2023-03-12T01:46:45.239Z,-0.88
2023-03-12T01:48:51.073Z,-0.89
2023-03-12T01:50:56.674Z,-0.83
2023-03-12T01:53:02.260Z,-0.81
2023-03-12T01:55:07.797Z,-0.79
2023-03-12T01:57:13.345Z,-0.78
2023-03-12T01:59:18.845Z,-0.73
2023-03-12T02:01:24.314Z,-0.72
2023-03-12T02:03:30.205Z,-0.67
2023-03-12T02:05:36.021Z,-0.68
2023-03-12T02:07:41.276Z,-0.62
2023-03-12T02:09:46.944Z,-0.61
2023-03-12T02:11:52.686Z,-0.6
2023-03-12T02:13:57.853Z,-0.54
2023-03-12T02:16:03.425Z,-0.55
2023-03-12T02:18:09.196Z,-0.48
2023-03-12T02:20:14.725Z,-0.46
2023-03-12T02:22:20.130Z,-0.44
2023-03-12T02:24:25.771Z,-0.43
2023-03-12T02:26:33.742Z,-0.45
2023-03-12T02:28:39.019Z,-0.41
2023-03-12T02:30:44.720Z,-0.39
2023-03-12T02:32:53.565Z,-0.38
2023-03-12T02:34:59.707Z,-0.37
2023-03-12T02:37:05.329Z,-0.37
2023-03-12T02:39:10.691Z,-0.33
2023-03-12T02:41:16.213Z,-0.33
2023-03-12T02:43:21.688Z,-0.32
2023-03-12T02:45:27.626Z,-0.31
2023-03-12T02:47:33.991Z,-0.31
2023-03-12T02:49:39.588Z,-0.33
2023-03-12T02:51:45.435Z,-0.31
2023-03-12T02:53:50.918Z,-0.31
2023-03-12T02:55:56.143Z,-0.35
2023-03-12T02:58:01.766Z,-0.38
2023-03-12T03:00:07.347Z,-0.4
2023-03-12T03:02:12.949Z,-0.39
2023-03-12T03:04:19.348Z,-0.39
2023-03-12T03:06:25.309Z,-0.37
2023-03-12T03:08:30.822Z,-0.41
2023-03-12T03:10:36.603Z,-0.42
2023-03-12T03:12:42.002Z,-0.51
2023-03-12T03:14:47.717Z,-0.57
2023-03-12T03:16:53.110Z,-0.62
2023-03-12T03:18:58.856Z,-0.65
2023-03-12T03:21:06.101Z,-0.64
2023-03-12T03:23:11.546Z,-0.64
2023-03-12T03:25:16.998Z,-0.68
2023-03-12T03:27:22.870Z,-0.64
2023-03-12T03:29:28.165Z,-0.59
2023-03-12T03:31:33.668Z,-0.52
2023-03-12T03:33:39.008Z,-0.48
2023-03-12T03:35:44.775Z,-0.4
2023-03-12T03:37:50.468Z,-0.39
2023-03-12T03:39:56.192Z,-0.44
2023-03-12T03:42:01.638Z,-0.4
2023-03-12T03:44:07.354Z,-0.41
2023-03-12T03:46:12.808Z,-0.38
2023-03-12T03:48:18.647Z,-0.31
2023-03-12T03:50:24.511Z,-0.3
2023-03-12T03:52:30.150Z,-0.23
2023-03-12T03:54:35.556Z,-0.17
2023-03-12T03:56:41.190Z,-0.17
2023-03-12T03:58:47.521Z,-0.11
2023-03-12T04:00:52.809Z,-0.07
2023-03-12T04:02:59.568Z,-0.05
2023-03-12T04:05:05.348Z,0.01
2023-03-12T04:07:10.841Z,0.05
2023-03-12T04:09:16.180Z,0
2023-03-12T04:11:21.822Z,0.03
2023-03-12T04:13:27.335Z,0.05
2023-03-12T04:15:32.474Z,0.04
2023-03-12T04:17:37.775Z,0.07
2023-03-12T04:19:43.560Z,0.03
2023-03-12T04:21:48.864Z,0.03
2023-03-12T04:23:54.164Z,0.04
2023-03-12T04:25:59.448Z,0.03
2023-03-12T04:28:05.132Z,0.04
2023-03-12T04:30:10.512Z,0.05
2023-03-12T04:32:16.763Z,0.04
2023-03-12T04:34:22.264Z,0.05
2023-03-12T04:36:27.474Z,0.07
2023-03-12T04:38:32.865Z,0.08
2023-03-12T04:40:39.650Z,0.09
2023-03-12T04:42:44.929Z,0.07
2023-03-12T04:44:51.282Z,0.09
2023-03-12T04:46:56.396Z,0.08
2023-03-12T04:49:02.609Z,0.06
2023-03-12T04:51:07.926Z,0.09
2023-03-12T04:53:13.250Z,0.1
2023-03-12T04:55:18.866Z,0.12
2023-03-12T04:57:24.440Z,0.14
2023-03-12T04:59:29.799Z,0.13
2023-03-12T05:01:34.928Z,0.12
2023-03-12T05:03:40.415Z,0.12
2023-03-12T05:05:46.504Z,0.13
2023-03-12T05:07:51.909Z,0.14
2023-03-12T05:09:57.402Z,0.17
2023-03-12T05:12:02.851Z,0.15
2023-03-12T05:14:08.192Z,0.18
2023-03-12T05:16:13.358Z,0.18
2023-03-12T05:18:18.852Z,0.19
2023-03-12T05:20:24.263Z,0.21
2023-03-12T05:22:29.589Z,0.19
2023-03-12T05:24:35.025Z,0.18
2023-03-12T05:26:40.504Z,0.21
2023-03-12T05:28:46.193Z,0.22
2023-03-12T05:30:51.520Z,0.26
2023-03-12T05:32:57.323Z,0.3
2023-03-12T05:35:03.066Z,0.27
2023-03-12T05:37:08.675Z,0.3
2023-03-12T05:39:13.882Z,0.34
2023-03-12T05:41:20.066Z,0.36
2023-03-12T05:43:25.384Z,0.35
2023-03-12T05:45:30.979Z,0.4
2023-03-12T05:47:36.661Z,0.39
2023-03-12T05:49:41.939Z,0.44
2023-03-12T05:51:48.290Z,0.46
2023-03-12T05:53:53.328Z,0.48
2023-03-12T05:55:58.627Z,0.52
2023-03-12T05:58:04.561Z,0.54
2023-03-12T06:00:11.584Z,0.56
2023-03-12T06:02:17.313Z,0.57
2023-03-12T06:04:24.297Z,0.62
2023-03-12T06:06:29.847Z,0.66
2023-03-12T06:08:35.244Z,0.68
2023-03-12T06:10:40.528Z,0.71
2023-03-12T06:12:46.119Z,0.77
2023-03-12T06:14:54.524Z,0.78
2023-03-12T06:16:59.993Z,0.76
2023-03-12T06:19:06.010Z,0.75
2023-03-12T06:21:14.039Z,0.82
2023-03-12T06:23:21.503Z,0.88
2023-03-12T06:25:28.084Z,0.84
2023-03-12T06:27:33.851Z,0.92
2023-03-12T06:29:39.540Z,0.89
2023-03-12T06:31:44.922Z,0.92
2023-03-12T06:33:51.813Z,0.87
2023-03-12T06:35:57.276Z,0.84
2023-03-12T06:38:04.630Z,0.79
2023-03-12T06:40:10.216Z,0.8
2023-03-12T06:42:15.404Z,0.75
2023-03-12T06:44:20.746Z,0.7
2023-03-12T06:46:26.855Z,0.73
2023-03-12T06:48:33.065Z,0.68
2023-03-12T06:50:38.795Z,0.72
2023-03-12T06:52:44.828Z,0.77
2023-03-12T06:54:50.230Z,0.85
2023-03-12T06:56:55.913Z,0.98
2023-03-12T06:59:01.660Z,1.17
2023-03-12T07:01:07.150Z,1.22
2023-03-12T07:03:12.743Z,1.12
2023-03-12T07:05:18.360Z,0.91
2023-03-12T07:07:25.505Z,0.83
2023-03-12T07:09:31.298Z,0.54
2023-03-12T07:11:41.534Z,0.54
2023-03-12T07:13:47.109Z,0.7
2023-03-12T07:15:54.410Z,0.74
2023-03-12T07:18:00.100Z,0.78
2023-03-12T07:20:05.662Z,0.85
2023-03-12T07:22:11.231Z,0.98
2023-03-12T07:24:16.602Z,0.92
2023-03-12T07:26:25.358Z,0.97
2023-03-12T07:28:30.729Z,1.05
2023-03-12T07:30:38.636Z,1.01
2023-03-12T07:32:45.821Z,1.09
2023-03-12T07:34:51.799Z,1.4
2023-03-12T07:36:58.495Z,1.61
2023-03-12T07:39:04.557Z,1.88
2023-03-12T07:41:11.293Z,1.93
2023-03-12T07:43:20.325Z,2.04
2023-03-12T07:45:26.999Z,2.06
2023-03-12T07:47:33.975Z,1.78
2023-03-12T07:49:41.080Z,1.59
2023-03-12T07:51:49.010Z,1.62
2023-03-12T07:53:56.022Z,1.53
2023-03-12T07:56:02.302Z,1.51
2023-03-12T07:58:09.575Z,1.43
2023-03-12T08:00:17.362Z,1.44
2023-03-12T08:02:24.393Z,1.54
2023-03-12T08:04:32.513Z,1.35
2023-03-12T08:06:39.206Z,1.27
2023-03-12T08:08:48.007Z,1.34
2023-03-12T08:10:55.008Z,1.35
2023-03-12T08:13:02.751Z,1.64
2023-03-12T08:15:09.918Z,1.81
2023-03-12T08:17:16.691Z,1.8
2023-03-12T08:19:23.152Z,1.99
2023-03-12T08:21:28.543Z,1.85
2023-03-12T08:23:34.112Z,1.69
2023-03-12T08:25:41.485Z,1.9
2023-03-12T08:27:47.444Z,1.96
2023-03-12T08:29:53.322Z,1.79
2023-03-12T08:32:04.851Z,2.08
2023-03-12T08:34:12.202Z,1.91
2023-03-12T08:36:19.702Z,1.84
2023-03-12T08:38:28.267Z,1.88
2023-03-12T08:40:34.979Z,1.68
2023-03-12T08:42:42.075Z,1.71
2023-03-12T08:44:48.665Z,1.71
2023-03-12T08:46:56.365Z,1.71
2023-03-12T08:49:03.154Z,1.62
2023-03-12T08:51:09.739Z,2.03
2023-03-12T08:53:19.031Z,2.26
2023-03-12T08:55:27.273Z,2.1
2023-03-12T08:57:34.240Z,1.97
2023-03-12T08:59:40.396Z,1.7
2023-03-12T09:01:47.598Z,1.48
2023-03-12T09:03:54.264Z,1.33
2023-03-12T09:06:01.091Z,1.67
2023-03-12T09:08:08.458Z,2.6
2023-03-12T09:10:15.866Z,2.99
2023-03-12T09:12:22.484Z,2.34
2023-03-12T09:15:01.348Z,2.3
2023-03-12T09:17:09.832Z,2.06
2023-03-12T09:19:15.295Z,1.83
2023-03-12T09:21:21.082Z,1.85
2023-03-12T09:23:26.611Z,1.67
2023-03-12T09:25:32.692Z,1.52
2023-03-12T09:27:39.665Z,1.4
2023-03-12T09:29:59.227Z,1.29
2023-03-12T09:32:07.784Z,1.59
2023-03-12T09:34:15.395Z,2.34
2023-03-12T09:36:22.742Z,3.13
2023-03-12T09:38:30.545Z,3.36
2023-03-12T09:40:36.719Z,2.72
2023-03-12T09:42:42.537Z,2.38
2023-03-12T09:44:52.599Z,2.35
2023-03-12T09:46:59.933Z,2.3
2023-03-12T09:49:06.797Z,2.45
2023-03-12T09:51:13.295Z,3.18
2023-03-12T09:53:19.201Z,2.8
2023-03-12T09:55:25.635Z,2.57
2023-03-12T09:57:32.542Z,2.52
2023-03-12T09:59:39.072Z,2.28
2023-03-12T10:01:45.952Z,2.09
2023-03-12T10:03:52.935Z,2.06
2023-03-12T10:06:00.264Z,1.98
2023-03-12T10:08:22.992Z,2.18
2023-03-12T10:10:36.149Z,2.23
2023-03-12T10:12:42.525Z,2.69
2023-03-12T10:14:51.303Z,2.77
2023-03-12T10:16:58.045Z,2.78
2023-03-12T10:19:04.579Z,3.04
2023-03-12T10:21:11.111Z,3.33
2023-03-12T10:23:16.655Z,3.41
2023-03-12T10:25:22.720Z,3.39
2023-03-12T10:27:29.663Z,3.07
2023-03-12T10:29:37.075Z,2.7
2023-03-12T10:31:47.028Z,2.72
2023-03-12T10:33:53.567Z,2.68
2023-03-12T10:36:00.601Z,2.41
2023-03-12T10:38:07.780Z,2.41
2023-03-12T10:40:15.328Z,2.53
2023-03-12T10:42:22.484Z,2.61
2023-03-12T10:44:29.187Z,2.56
2023-03-12T10:46:36.083Z,2.54
2023-03-12T10:48:42.998Z,2.81
2023-03-12T10:50:49.976Z,2.97
2023-03-12T10:52:55.945Z,3.21
2023-03-12T10:55:02.421Z,3.1
2023-03-12T10:57:10.452Z,2.93
2023-03-12T10:59:18.025Z,3.07
2023-03-12T11:01:25.660Z,2.77
2023-03-12T11:03:32.483Z,2.68
2023-03-12T11:05:38.655Z,3.15
2023-03-12T11:07:46.609Z,2.98
2023-03-12T11:09:53.811Z,2.83
2023-03-12T11:12:01.258Z,2.7
2023-03-12T11:14:08.831Z,2.58
2023-03-12T11:16:16.082Z,2.34
2023-03-12T11:18:23.780Z,2.2
2023-03-12T11:20:29.830Z,2.67
2023-03-12T11:22:37.002Z,3.48
2023-03-12T11:24:43.224Z,4.04
2023-03-12T11:26:49.687Z,4.42
2023-03-12T11:28:55.567Z,3.82
2023-03-12T11:31:05.863Z,3.16
2023-03-12T11:33:13.106Z,3.01
2023-03-12T11:35:19.922Z,3.1
2023-03-12T11:37:26.255Z,3.15
2023-03-12T11:39:32.959Z,3.43
2023-03-12T11:41:39.987Z,3.51
2023-03-12T11:43:47.216Z,3.39
2023-03-12T11:45:55.277Z,3.52
2023-03-12T11:48:02.726Z,3.94
2023-03-12T11:50:09.581Z,3.78
2023-03-12T11:52:16.377Z,3.62
2023-03-12T11:54:23.149Z,3.39
2023-03-12T11:56:30.322Z,3.92
2023-03-12T11:58:36.525Z,4.45
2023-03-12T12:00:43.238Z,5.07
2023-03-12T12:02:51.881Z,4.77
2023-03-12T12:04:58.706Z,5.39
2023-03-12T12:07:05.700Z,5.9
2023-03-12T12:09:12.525Z,6.01
2023-03-12T12:11:19.150Z,5.63
2023-03-12T12:13:25.693Z,5.78
2023-03-12T12:15:32.272Z,5.55
2023-03-12T12:17:38.348Z,5.34
2023-03-12T12:19:45.390Z,5.82
2023-03-12T12:21:51.946Z,5.21
2023-03-12T12:23:59.139Z,5.94
2023-03-12T12:26:07.026Z,5.87
2023-03-12T12:28:15.140Z,6.13
2023-03-12T12:30:20.903Z,5.35
2023-03-12T12:32:26.691Z,4.75
2023-03-12T12:34:32.277Z,4.85
2023-03-12T12:36:38.884Z,5.29
2023-03-12T12:38:47.120Z,4.92
2023-03-12T12:40:53.568Z,4.43
2023-03-12T12:43:02.458Z,4.11
2023-03-12T12:45:09.438Z,3.79
2023-03-12T12:47:17.236Z,3.78
2023-03-12T12:49:23.870Z,4.25
2023-03-12T12:51:31.415Z,4.69
2023-03-12T12:53:40.197Z,4.88
2023-03-12T12:55:47.951Z,4.72
2023-03-12T12:57:54.880Z,4.72
2023-03-12T13:00:02.764Z,4.34
2023-03-12T13:02:09.210Z,4.67
2023-03-12T13:04:16.185Z,4.62
2023-03-12T13:06:24.230Z,4.63
2023-03-12T13:08:32.387Z,4.58
2023-03-12T13:10:45.013Z,4.31
2023-03-12T13:13:26.199Z,4.64
2023-03-12T13:15:34.817Z,4.98
2023-03-12T13:17:42.555Z,4.63
2023-03-12T13:19:55.342Z,4.41
2023-03-12T13:22:07.039Z,4.34
2023-03-12T13:24:16.667Z,4.13
2023-03-12T13:26:24.492Z,4.18
2023-03-12T13:28:30.433Z,4.07
2023-03-12T13:30:38.403Z,4.16
2023-03-12T13:32:45.923Z,4.5
2023-03-12T13:34:57.586Z,4.68
2023-03-12T13:37:05.667Z,4.79
2023-03-12T13:39:15.881Z,4.85
2023-03-12T13:41:23.112Z,4.64
2023-03-12T13:43:30.921Z,4.39
2023-03-12T13:45:40.084Z,3.96
2023-03-12T13:47:47.639Z,3.97
2023-03-12T13:49:53.551Z,4.01
2023-03-12T13:52:00.306Z,3.84
2023-03-12T13:54:07.654Z,3.73
2023-03-12T13:56:14.420Z,3.56
2023-03-12T13:58:22.111Z,3.43
2023-03-12T14:00:29.511Z,3.29
2023-03-12T14:02:37.019Z,3.29
2023-03-12T14:04:44.397Z,3.23
2023-03-12T14:06:51.887Z,3.22
2023-03-12T14:08:59.981Z,3.2
2023-03-12T14:11:07.095Z,3.13
2023-03-12T14:13:16.051Z,3.11
2023-03-12T14:15:23.069Z,3.04
2023-03-12T14:17:31.495Z,3.02
2023-03-12T14:19:39.158Z,3.01
2023-03-12T14:21:46.916Z,2.98
2023-03-12T14:23:53.612Z,3.04
2023-03-12T14:26:03.544Z,3.26
2023-03-12T14:28:11.624Z,3.43
2023-03-12T14:30:20.132Z,3.67
2023-03-12T14:32:27.961Z,3.63
2023-03-12T14:34:37.366Z,3.68
2023-03-12T14:36:44.801Z,3.8
2023-03-12T14:38:55.490Z,3.86
2023-03-12T14:41:02.325Z,3.85
2023-03-12T14:43:10.388Z,4.09
2023-03-12T14:45:17.530Z,4.08
2023-03-12T14:47:25.665Z,4
2023-03-12T14:49:34.415Z,4.13
2023-03-12T14:51:42.697Z,4.24
2023-03-12T14:53:51.272Z,4.37
2023-03-12T14:55:59.212Z,4.32
2023-03-12T14:58:05.797Z,4.32
2023-03-12T15:00:13.792Z,4.29
2023-03-12T15:02:23.923Z,4.31
2023-03-12T15:04:31.945Z,4.22
2023-03-12T15:06:40.840Z,4.26
2023-03-12T15:08:48.918Z,4.28
2023-03-12T15:10:57.135Z,4.2
2023-03-12T15:13:06.757Z,4.24
2023-03-12T15:15:15.923Z,4.16
2023-03-12T15:17:23.000Z,4.02
2023-03-12T15:19:30.799Z,3.91
2023-03-12T15:21:40.642Z,3.81
2023-03-12T15:23:48.842Z,3.78
2023-03-12T15:25:58.773Z,3.74
2023-03-12T15:28:08.706Z,3.64
2023-03-12T15:30:16.689Z,3.61
2023-03-12T15:32:24.370Z,3.58
2023-03-12T15:34:33.226Z,3.55
2023-03-12T15:36:40.958Z,3.49
2023-03-12T15:38:47.880Z,3.43
2023-03-12T15:40:57.415Z,3.38
2023-03-12T15:43:07.386Z,3.34
2023-03-12T15:45:14.826Z,3.28
2023-03-12T15:47:23.978Z,3.23
2023-03-12T15:49:35.609Z,3.24
2023-03-12T15:51:45.215Z,3.26
2023-03-12T15:53:52.287Z,3.25
2023-03-12T15:56:01.825Z,3.23
2023-03-12T15:58:11.099Z,3.19
2023-03-12T16:00:19.886Z,3.17
2023-03-12T16:02:28.458Z,3.15
2023-03-12T16:04:38.545Z,3.12
2023-03-12T16:06:46.726Z,3.06
2023-03-12T16:08:55.426Z,2.98
2023-03-12T16:11:12.487Z,2.88
2023-03-12T16:13:25.307Z,2.76
2023-03-12T16:15:34.528Z,2.7
2023-03-12T16:17:43.759Z,2.72
2023-03-12T16:19:53.528Z,2.69
2023-03-12T16:22:04.613Z,2.55
2023-03-12T16:24:14.165Z,2.52
2023-03-12T16:26:22.664Z,2.43
2023-03-12T16:28:33.492Z,2.34
2023-03-12T16:30:41.906Z,2.23
2023-03-12T16:32:54.287Z,2.18
2023-03-12T16:35:07.549Z,2.09
2023-03-12T16:37:17.120Z,2.01
2023-03-12T16:39:27.706Z,1.89
2023-03-12T16:41:35.573Z,1.87
2023-03-12T16:43:44.416Z,1.82
2023-03-12T16:45:56.852Z,1.75
2023-03-12T16:48:06.030Z,1.66
2023-03-12T16:50:13.688Z,1.53
2023-03-12T16:52:21.806Z,1.45
2023-03-12T16:54:31.276Z,1.25
2023-03-12T16:56:42.927Z,1.06
2023-03-12T16:58:56.543Z,0.88
2023-03-12T17:01:10.096Z,0.71
2023-03-12T17:03:19.880Z,0.53
2023-03-12T17:05:28.650Z,0.35
2023-03-12T17:07:38.641Z,0.22
2023-03-12T17:09:48.716Z,0.2
2023-03-12T17:11:58.105Z,0.09
2023-03-12T17:14:06.723Z,-0.04
2023-03-12T17:16:14.907Z,-0.15
2023-03-12T17:18:25.436Z,-0.13
2023-03-12T17:20:41.309Z,-0.22
2023-03-12T17:22:50.734Z,-0.28
2023-03-12T17:25:04.523Z,-0.3
2023-03-12T17:27:15.974Z,-0.24
2023-03-12T17:29:27.798Z,-0.24
2023-03-12T17:31:37.684Z,-0.28
2023-03-12T17:33:47.985Z,-0.01
2023-03-12T17:35:57.957Z,0.03
2023-03-12T17:38:14.779Z,0.06
2023-03-12T17:40:25.130Z,0.51
2023-03-12T17:42:43.610Z,0.45
2023-03-12T17:44:53.529Z,0.38
2023-03-12T17:47:02.494Z,0.47
2023-03-12T17:49:16.247Z,0.7
2023-03-12T17:51:26.164Z,0.67
2023-03-12T17:53:36.089Z,0.57
2023-03-12T17:55:46.347Z,0.66
2023-03-12T17:57:55.477Z,0.66
2023-03-12T18:00:04.174Z,0.9
2023-03-12T18:02:21.510Z,0.93
2023-03-12T18:04:34.571Z,1.25
2023-03-12T18:06:46.720Z,1.26
2023-03-12T18:08:58.079Z,1.13
2023-03-12T18:11:08.123Z,1.02
2023-03-12T18:13:20.497Z,1.09
2023-03-12T18:15:30.602Z,1.05
2023-03-12T18:17:42.317Z,1.15
2023-03-12T18:19:54.526Z,1.14
2023-03-12T18:22:04.746Z,1.07
2023-03-12T18:24:14.879Z,0.96
2023-03-12T18:26:27.438Z,0.84
2023-03-12T18:28:37.626Z,0.73
2023-03-12T18:30:55.316Z,0.73
2023-03-12T18:33:05.395Z,0.88
2023-03-12T18:35:16.650Z,1
2023-03-12T18:37:30.671Z,0.83
2023-03-12T18:39:40.504Z,0.77
2023-03-12T18:41:52.078Z,0.58
2023-03-12T18:44:01.585Z,0.42
2023-03-12T18:46:11.625Z,0.29
2023-03-12T18:48:21.202Z,0.19
2023-03-12T18:50:30.943Z,0.15
2023-03-12T18:52:41.492Z,0.16
2023-03-12T18:54:52.023Z,0.1
2023-03-12T18:57:03.109Z,0.06
2023-03-12T18:59:13.472Z,-0.03
2023-03-12T19:01:32.766Z,-0.07
2023-03-12T19:03:43.134Z,-0.15
2023-03-12T19:05:58.947Z,-0.3
2023-03-12T19:08:10.021Z,-0.27
2023-03-12T19:10:22.350Z,-0.23
2023-03-12T19:12:39.405Z,-0.2
2023-03-12T19:15:08.975Z,-0.35
2023-03-12T19:17:22.175Z,-0.36
2023-03-12T19:19:39.307Z,-0.35
2023-03-12T19:21:56.602Z,-0.38
2023-03-12T19:24:20.594Z,-0.4
2023-03-12T19:26:31.285Z,-0.48
2023-03-12T19:28:42.605Z,-0.6
2023-03-12T19:30:52.600Z,-0.48
2023-03-12T19:33:02.824Z,-0.34
2023-03-12T19:37:39.562Z,-0.48
2023-03-12T19:39:52.256Z,-0.69
2023-03-12T19:42:03.808Z,-0.86
2023-03-12T19:44:16.956Z,-1.03
2023-03-12T19:46:29.526Z,-1.16
2023-03-12T19:48:38.881Z,-1.18
2023-03-12T19:50:54.674Z,-1.15
2023-03-12T19:53:07.487Z,-1.17
2023-03-12T19:55:21.861Z,-1.21
2023-03-12T19:57:47.643Z,-1.26
2023-03-12T19:59:57.460Z,-1.27
2023-03-12T20:02:09.820Z,-1.21
2023-03-12T20:04:22.045Z,-1.2
2023-03-12T20:06:33.373Z,-1.16
2023-03-12T20:08:43.584Z,-1.15
2023-03-12T20:11:02.259Z,-1.17
2023-03-12T20:13:14.873Z,-1.25
2023-03-12T20:15:29.227Z,-1.34
2023-03-12T20:17:38.265Z,-1.38
2023-03-12T20:19:47.057Z,-1.48
2023-03-12T20:22:00.973Z,-1.58
2023-03-12T20:24:20.581Z,-1.72
2023-03-12T20:26:34.594Z,-1.81
2023-03-12T20:28:48.121Z,-1.81
2023-03-12T20:30:57.582Z,-1.79
2023-03-12T20:33:11.245Z,-1.78
2023-03-12T20:35:20.916Z,-1.83
2023-03-12T20:37:32.097Z,-1.84
2023-03-12T20:39:43.850Z,-1.79
2023-03-12T20:42:00.450Z,-1.88
2023-03-12T20:44:12.109Z,-1.87
2023-03-12T20:46:27.747Z,-1.85
2023-03-12T20:48:40.289Z,-1.82
2023-03-12T20:50:50.345Z,-1.79
2023-03-12T20:53:01.468Z,-1.72
2023-03-12T20:55:15.079Z,-1.68
2023-03-12T20:57:26.363Z,-1.69
2023-03-12T20:59:38.139Z,-1.7
2023-03-12T21:01:49.108Z,-1.71
2023-03-12T21:04:00.045Z,-1.7
2023-03-12T21:06:09.262Z,-1.66
2023-03-12T21:08:22.470Z,-1.66
2023-03-12T21:10:33.063Z,-1.67
2023-03-12T21:12:41.259Z,-1.67
2023-03-12T21:14:49.261Z,-1.68
2023-03-12T21:17:03.059Z,-1.65
2023-03-12T21:19:14.879Z,-1.59
2023-03-12T21:21:23.933Z,-1.52
2023-03-12T21:23:31.703Z,-1.43
2023-03-12T21:25:41.643Z,-1.42
2023-03-12T21:27:51.634Z,-1.39
2023-03-12T21:29:59.154Z,-1.34
2023-03-12T21:32:07.900Z,-1.32
2023-03-12T21:34:18.980Z,-1.31
2023-03-12T21:36:26.644Z,-1.27
2023-03-12T21:38:36.005Z,-1.24
2023-03-12T21:40:43.822Z,-1.2
2023-03-12T21:42:53.415Z,-1.17
2023-03-12T21:45:04.675Z,-1.17
2023-03-12T21:47:11.637Z,-1.17
2023-03-12T21:49:18.724Z,-1.15
2023-03-12T21:51:25.766Z,-1.13
2023-03-12T21:53:33.161Z,-1.12
2023-03-12T21:55:39.974Z,-1.12
2023-03-12T21:57:46.471Z,-1.1
2023-03-12T21:59:53.161Z,-1.12
2023-03-12T22:01:59.573Z,-1.12
2023-03-12T22:04:05.891Z,-1.07
2023-03-12T22:06:12.602Z,-1.07
2023-03-12T22:10:40.356Z,-1.07
2023-03-12T22:12:49.292Z,-1.03
2023-03-12T22:14:55.741Z,-1.02
2023-03-12T22:17:01.397Z,-0.96
2023-03-12T22:19:08.146Z,-0.91
2023-03-12T22:21:15.646Z,-0.85
2023-03-12T22:23:23.287Z,-0.82
2023-03-12T22:25:30.120Z,-0.73
2023-03-12T22:27:36.982Z,-0.63
2023-03-12T22:29:43.371Z,-0.53
2023-03-12T22:31:49.536Z,-0.22
2023-03-12T22:33:56.528Z,-0.11
2023-03-12T22:36:02.336Z,-0.07
2023-03-12T22:38:09.422Z,-0.08
2023-03-12T22:40:16.302Z,-0.08
2023-03-12T22:42:22.480Z,-0.08
2023-03-12T22:44:28.324Z,-0.11
2023-03-12T22:46:33.755Z,-0.12
2023-03-12T22:48:40.302Z,-0.11
2023-03-12T22:50:46.855Z,-0.02
2023-03-12T22:52:53.821Z,-0.01
2023-03-12T22:54:59.552Z,0.03
2023-03-12T22:57:04.969Z,0.03
2023-03-12T22:59:11.120Z,0.02
2023-03-12T23:01:16.827Z,-0.01
2023-03-12T23:03:23.481Z,-0.01
2023-03-12T23:05:30.587Z,0.01
2023-03-12T23:07:36.320Z,-0.02
2023-03-12T23:09:42.251Z,-0.06
2023-03-12T23:11:48.617Z,-0.07
2023-03-12T23:13:55.514Z,-0.1
2023-03-12T23:16:01.699Z,-0.12
2023-03-12T23:18:08.011Z,-0.08
2023-03-12T23:20:13.511Z,-0.06
2023-03-12T23:22:19.415Z,0.01
2023-03-12T23:24:25.027Z,0.04
2023-03-12T23:26:30.579Z,0.02
2023-03-12T23:28:36.108Z,0.03
2023-03-12T23:30:42.811Z,0
2023-03-12T23:32:48.854Z,0
2023-03-12T23:34:55.199Z,0.13
2023-03-12T23:37:01.916Z,0.22
2023-03-12T23:39:07.267Z,0.17
2023-03-12T23:41:12.619Z,0.11
2023-03-12T23:43:17.986Z,0.06
2023-03-12T23:45:23.818Z,0.02
2023-03-12T23:47:29.647Z,-0.09
2023-03-12T23:49:35.359Z,-0.1
2023-03-12T23:51:41.012Z,-0.07
2023-03-12T23:53:46.287Z,0.17
2023-03-12T23:55:51.551Z,0.23
2023-03-12T23:57:56.880Z,0.24
